sensor_id;sensor_type;location;lat;lon;timestamp;pressure;altitude;pressure_sealevel;temperature;humidity
7836;BME280;3963;42.658;23.298;2023-06-22T00:01:21;46546.06;;;-144.44;94.34
7836;BME280;3963;42.658;23.298;2023-06-22T00:03:49;46613.28;;;-144.44;95.83
7836;BME280;3963;42.658;23.298;2023-06-22T00:06:15;46593.53;;;-144.44;96.42
7836;BME280;3963;42.658;23.298;2023-06-22T00:08:42;46583.63;;;-144.44;96.50
7836;BME280;3963;42.658;23.298;2023-06-22T00:11:11;46575.72;;;-144.44;96.45
7836;BME280;3963;42.658;23.298;2023-06-22T00:13:38;46567.81;;;-144.44;96.31
7836;BME280;3963;42.658;23.298;2023-06-22T00:16:05;46567.81;;;-144.44;95.96
7836;BME280;3963;42.658;23.298;2023-06-22T00:18:32;46575.72;;;-144.44;96.47
7836;BME280;3963;42.658;23.298;2023-06-22T00:21:00;46601.44;;;-144.44;96.63
7836;BME280;3963;42.658;23.298;2023-06-22T00:23:27;46597.47;;;-144.44;97.10
7836;BME280;3963;42.658;23.298;2023-06-22T00:25:59;46599.47;;;-144.44;97.17
7836;BME280;3963;42.658;23.298;2023-06-22T00:28:27;46601.44;;;-144.44;97.58
7836;BME280;3963;42.658;23.298;2023-06-22T00:30:54;46595.50;;;-144.44;97.81
7836;BME280;3963;42.658;23.298;2023-06-22T00:33:22;46583.63;;;-144.44;97.91
7836;BME280;3963;42.658;23.298;2023-06-22T00:35:49;46589.56;;;-144.44;98.28
7836;BME280;3963;42.658;23.298;2023-06-22T00:38:18;46585.63;;;-144.44;98.21
7836;BME280;3963;42.658;23.298;2023-06-22T00:40:45;46557.94;;;-144.44;97.99
7836;BME280;3963;42.658;23.298;2023-06-22T00:43:12;46563.88;;;-144.44;98.25
7836;BME280;3963;42.658;23.298;2023-06-22T00:45:40;46550.03;;;-144.44;98.29
7836;BME280;3963;42.658;23.298;2023-06-22T00:48:08;46571.78;;;-144.44;98.86
7836;BME280;3963;42.658;23.298;2023-06-22T00:50:35;46591.53;;;-144.44;99.85
7836;BME280;3963;42.658;23.298;2023-06-22T00:53:03;46575.72;;;-144.44;99.62
7836;BME280;3963;42.658;23.298;2023-06-22T00:55:35;46583.63;;;-144.44;99.95
7836;BME280;3963;42.658;23.298;2023-06-22T00:58:04;46559.91;;;-144.44;100.00
7836;BME280;3963;42.658;23.298;2023-06-22T01:00:33;46583.63;;;-144.44;100.00
7836;BME280;3963;42.658;23.298;2023-06-22T01:03:02;46583.63;;;-144.44;100.00
7836;BME280;3963;42.658;23.298;2023-06-22T01:05:31;46559.91;;;-144.44;100.00
7836;BME280;3963;42.658;23.298;2023-06-22T01:08:22;46555.97;;;-144.44;100.00
7836;BME280;3963;42.658;23.298;2023-06-22T01:10:55;46540.16;;;-144.44;100.00
7836;BME280;3963;42.658;23.298;2023-06-22T01:13:29;46557.94;;;-144.44;100.00
7836;BME280;3963;42.658;23.298;2023-06-22T01:16:02;46567.81;;;-144.44;100.00
7836;BME280;3963;42.658;23.298;2023-06-22T01:18:32;46544.09;;;-144.44;100.00
7836;BME280;3963;42.658;23.298;2023-06-22T01:21:02;46552.00;;;-144.44;100.00
7836;BME280;3963;42.658;23.298;2023-06-22T01:23:51;46540.16;;;-144.44;100.00
7836;BME280;3963;42.658;23.298;2023-06-22T01:26:27;46565.84;;;-144.44;100.00
7836;BME280;3963;42.658;23.298;2023-06-22T01:28:57;46528.28;;;-144.44;100.00
7836;BME280;3963;42.658;23.298;2023-06-22T01:31:27;46544.09;;;-144.44;100.00
7836;BME280;3963;42.658;23.298;2023-06-22T01:33:58;46530.25;;;-144.44;100.00
7836;BME280;3963;42.658;23.298;2023-06-22T01:36:27;46526.31;;;-144.44;100.00
7836;BME280;3963;42.658;23.298;2023-06-22T01:38:54;46518.41;;;-144.44;100.00
7836;BME280;3963;42.658;23.298;2023-06-22T01:41:25;46528.28;;;-144.44;100.00
7836;BME280;3963;42.658;23.298;2023-06-22T01:43:53;46512.47;;;-144.44;100.00
7836;BME280;3963;42.658;23.298;2023-06-22T01:46:22;46516.41;;;-144.44;100.00
7836;BME280;3963;42.658;23.298;2023-06-22T01:48:51;46528.28;;;-144.44;100.00
7836;BME280;3963;42.658;23.298;2023-06-22T01:51:19;46510.50;;;-144.44;100.00
7836;BME280;3963;42.658;23.298;2023-06-22T01:53:46;46504.56;;;-144.44;100.00
7836;BME280;3963;42.658;23.298;2023-06-22T01:56:14;46496.66;;;-144.44;100.00
7836;BME280;3963;42.658;23.298;2023-06-22T01:58:48;46532.22;;;-144.44;100.00
7836;BME280;3963;42.658;23.298;2023-06-22T02:01:23;46510.50;;;-144.44;100.00
7836;BME280;3963;42.658;23.298;2023-06-22T02:03:59;46506.53;;;-144.44;100.00
7836;BME280;3963;42.658;23.298;2023-06-22T02:06:32;46504.56;;;-144.44;100.00
7836;BME280;3963;42.658;23.298;2023-06-22T02:09:07;46486.75;;;-144.44;100.00
7836;BME280;3963;42.658;23.298;2023-06-22T02:11:36;46510.50;;;-144.44;100.00
7836;BME280;3963;42.658;23.298;2023-06-22T02:14:05;46496.66;;;-144.44;100.00
7836;BME280;3963;42.658;23.298;2023-06-22T02:16:35;46480.84;;;-144.44;100.00
7836;BME280;3963;42.658;23.298;2023-06-22T02:19:03;46496.66;;;-144.44;100.00
7836;BME280;3963;42.658;23.298;2023-06-22T02:21:32;46488.75;;;-144.44;100.00
7836;BME280;3963;42.658;23.298;2023-06-22T02:23:58;46465.03;;;-144.44;100.00
7836;BME280;3963;42.658;23.298;2023-06-22T02:26:26;46472.94;;;-144.44;100.00
7836;BME280;3963;42.658;23.298;2023-06-22T02:28:53;46508.50;;;-144.44;100.00
7836;BME280;3963;42.658;23.298;2023-06-22T02:31:20;46486.75;;;-144.44;100.00
7836;BME280;3963;42.658;23.298;2023-06-22T02:33:48;46476.88;;;-144.44;100.00
7836;BME280;3963;42.658;23.298;2023-06-22T02:36:15;46482.81;;;-144.44;100.00
7836;BME280;3963;42.658;23.298;2023-06-22T02:38:49;46478.84;;;-144.44;100.00
7836;BME280;3963;42.658;23.298;2023-06-22T02:41:16;46488.75;;;-144.44;100.00
7836;BME280;3963;42.658;23.298;2023-06-22T02:43:45;46472.94;;;-144.44;100.00
7836;BME280;3963;42.658;23.298;2023-06-22T02:46:12;46480.84;;;-144.44;100.00
7836;BME280;3963;42.658;23.298;2023-06-22T02:48:39;46476.88;;;-144.44;100.00
7836;BME280;3963;42.658;23.298;2023-06-22T02:51:07;46480.84;;;-144.44;100.00
7836;BME280;3963;42.658;23.298;2023-06-22T02:53:34;46480.84;;;-144.44;100.00
7836;BME280;3963;42.658;23.298;2023-06-22T02:56:02;46496.66;;;-144.44;100.00
7836;BME280;3963;42.658;23.298;2023-06-22T02:58:30;46453.16;;;-144.44;100.00
7836;BME280;3963;42.658;23.298;2023-06-22T03:00:58;46463.03;;;-144.44;100.00
7836;BME280;3963;42.658;23.298;2023-06-22T03:03:29;46472.94;;;-144.44;100.00
7836;BME280;3963;42.658;23.298;2023-06-22T03:05:56;46457.09;;;-144.44;100.00
7836;BME280;3963;42.658;23.298;2023-06-22T03:08:25;46441.28;;;-144.44;100.00
7836;BME280;3963;42.658;23.298;2023-06-22T03:10:53;46443.28;;;-144.44;100.00
7836;BME280;3963;42.658;23.298;2023-06-22T03:13:19;46445.25;;;-144.44;100.00
7836;BME280;3963;42.658;23.298;2023-06-22T03:15:47;46437.34;;;-144.44;100.00
7836;BME280;3963;42.658;23.298;2023-06-22T03:18:13;46447.22;;;-144.44;100.00
7836;BME280;3963;42.658;23.298;2023-06-22T03:20:41;46449.19;;;-144.44;100.00
7836;BME280;3963;42.658;23.298;2023-06-22T03:23:08;46453.16;;;-144.44;100.00
7836;BME280;3963;42.658;23.298;2023-06-22T03:25:36;46435.38;;;-144.44;100.00
7836;BME280;3963;42.658;23.298;2023-06-22T03:28:03;46468.97;;;-144.44;100.00
7836;BME280;3963;42.658;23.298;2023-06-22T03:30:30;46445.25;;;-144.44;100.00
7836;BME280;3963;42.658;23.298;2023-06-22T03:32:56;46472.94;;;-144.44;100.00
7836;BME280;3963;42.658;23.298;2023-06-22T03:35:23;46449.19;;;-144.44;100.00
7836;BME280;3963;42.658;23.298;2023-06-22T03:37:50;46461.06;;;-144.44;100.00
7836;BME280;3963;42.658;23.298;2023-06-22T03:40:17;46476.88;;;-144.44;100.00
7836;BME280;3963;42.658;23.298;2023-06-22T03:42:45;46455.13;;;-144.44;100.00
7836;BME280;3963;42.658;23.298;2023-06-22T03:45:12;46433.38;;;-144.44;100.00
7836;BME280;3963;42.658;23.298;2023-06-22T03:47:38;46441.28;;;-144.44;100.00
7836;BME280;3963;42.658;23.298;2023-06-22T03:50:06;46441.28;;;-144.44;100.00
7836;BME280;3963;42.658;23.298;2023-06-22T03:52:33;46461.06;;;-144.44;100.00
7836;BME280;3963;42.658;23.298;2023-06-22T03:55:00;46451.19;;;-144.44;100.00
7836;BME280;3963;42.658;23.298;2023-06-22T03:57:26;46467.00;;;-144.44;100.00
7836;BME280;3963;42.658;23.298;2023-06-22T03:59:56;46474.91;;;-144.44;100.00
7836;BME280;3963;42.658;23.298;2023-06-22T04:02:23;46468.97;;;-144.44;100.00
7836;BME280;3963;42.658;23.298;2023-06-22T04:04:51;46490.72;;;-144.44;100.00
7836;BME280;3963;42.658;23.298;2023-06-22T04:07:18;46488.75;;;-144.44;100.00
7836;BME280;3963;42.658;23.298;2023-06-22T04:09:44;46476.88;;;-144.44;100.00
7836;BME280;3963;42.658;23.298;2023-06-22T04:12:11;46474.91;;;-144.44;100.00
7836;BME280;3963;42.658;23.298;2023-06-22T04:14:38;46506.53;;;-144.44;100.00
7836;BME280;3963;42.658;23.298;2023-06-22T04:17:06;46480.84;;;-144.44;100.00
7836;BME280;3963;42.658;23.298;2023-06-22T04:19:33;46504.56;;;-144.44;100.00
7836;BME280;3963;42.658;23.298;2023-06-22T04:22:00;46492.69;;;-144.44;100.00
7836;BME280;3963;42.658;23.298;2023-06-22T04:24:27;46510.50;;;-144.44;100.00
7836;BME280;3963;42.658;23.298;2023-06-22T04:26:54;46504.56;;;-144.44;100.00
7836;BME280;3963;42.658;23.298;2023-06-22T04:29:21;46510.50;;;-144.44;100.00
7836;BME280;3963;42.658;23.298;2023-06-22T04:31:55;46500.59;;;-144.44;100.00
7836;BME280;3963;42.658;23.298;2023-06-22T04:34:25;46530.25;;;-144.44;100.00
7836;BME280;3963;42.658;23.298;2023-06-22T04:36:53;46522.34;;;-144.44;100.00
7836;BME280;3963;42.658;23.298;2023-06-22T04:39:21;46526.31;;;-144.44;100.00
7836;BME280;3963;42.658;23.298;2023-06-22T04:41:49;46512.47;;;-144.44;100.00
7836;BME280;3963;42.658;23.298;2023-06-22T04:44:18;46457.09;;;-144.44;98.25
7836;BME280;3963;42.658;23.298;2023-06-22T04:46:49;46484.78;;;-144.44;98.43
7836;BME280;3963;42.658;23.298;2023-06-22T04:49:19;46457.09;;;-144.44;97.47
7836;BME280;3963;42.658;23.298;2023-06-22T04:51:47;46512.47;;;-144.44;98.19
7836;BME280;3963;42.658;23.298;2023-06-22T04:54:17;46474.91;;;-144.44;97.51
7836;BME280;3963;42.658;23.298;2023-06-22T04:56:44;46476.88;;;-144.44;96.84
7836;BME280;3963;42.658;23.298;2023-06-22T04:59:12;46474.91;;;-144.44;96.75
7836;BME280;3963;42.658;23.298;2023-06-22T05:01:38;46435.38;;;-144.44;95.10
7836;BME280;3963;42.658;23.298;2023-06-22T05:04:05;46395.81;;;-144.44;94.91
7836;BME280;3963;42.658;23.298;2023-06-22T05:06:32;46455.13;;;-144.44;95.73
7836;BME280;3963;42.658;23.298;2023-06-22T05:09:00;46467.00;;;-144.44;96.21
7836;BME280;3963;42.658;23.298;2023-06-22T05:11:28;46476.88;;;-144.44;96.29
7836;BME280;3963;42.658;23.298;2023-06-22T05:13:55;46488.75;;;-144.44;96.13
7836;BME280;3963;42.658;23.298;2023-06-22T05:16:22;46494.66;;;-144.44;95.99
7836;BME280;3963;42.658;23.298;2023-06-22T05:18:51;46441.28;;;-144.44;95.20
7836;BME280;3963;42.658;23.298;2023-06-22T05:21:22;46413.63;;;-144.44;94.18
7836;BME280;3963;42.658;23.298;2023-06-22T05:23:49;46421.53;;;-144.44;94.07
7836;BME280;3963;42.658;23.298;2023-06-22T05:26:18;46417.56;;;-144.44;93.76
7836;BME280;3963;42.658;23.298;2023-06-22T05:28:45;46405.72;;;-144.44;93.37
7836;BME280;3963;42.658;23.298;2023-06-22T05:31:13;46397.81;;;-144.44;92.60
7836;BME280;3963;42.658;23.298;2023-06-22T05:33:40;46370.13;;;-144.44;92.44
7836;BME280;3963;42.658;23.298;2023-06-22T05:36:07;46374.06;;;-144.44;91.91
7836;BME280;3963;42.658;23.298;2023-06-22T05:38:34;46330.59;;;-144.44;91.57
7836;BME280;3963;42.658;23.298;2023-06-22T05:41:01;46338.50;;;-144.44;90.96
7836;BME280;3963;42.658;23.298;2023-06-22T05:43:29;46358.25;;;-144.44;91.40
7836;BME280;3963;42.658;23.298;2023-06-22T05:45:57;46397.81;;;-144.44;91.43
7836;BME280;3963;42.658;23.298;2023-06-22T05:48:24;46370.13;;;-144.44;90.81
7836;BME280;3963;42.658;23.298;2023-06-22T05:50:50;46346.41;;;-144.44;89.75
7836;BME280;3963;42.658;23.298;2023-06-22T05:53:17;46241.63;;;-144.44;87.98
7836;BME280;3963;42.658;23.298;2023-06-22T05:55:44;46233.72;;;-144.44;87.24
7836;BME280;3963;42.658;23.298;2023-06-22T05:58:10;46184.31;;;-144.44;86.55
7836;BME280;3963;42.658;23.298;2023-06-22T06:00:40;46192.22;;;-144.44;86.62
7836;BME280;3963;42.658;23.298;2023-06-22T06:03:07;46229.75;;;-144.44;86.76
7836;BME280;3963;42.658;23.298;2023-06-22T06:05:34;46176.38;;;-144.44;85.73
7836;BME280;3963;42.658;23.298;2023-06-22T06:08:02;46190.22;;;-144.44;86.45
7836;BME280;3963;42.658;23.298;2023-06-22T06:10:30;46158.59;;;-144.44;85.13
7836;BME280;3963;42.658;23.298;2023-06-22T06:12:57;46113.13;;;-144.44;83.55
7836;BME280;3963;42.658;23.298;2023-06-22T06:15:24;46140.81;;;-144.44;83.99
7836;BME280;3963;42.658;23.298;2023-06-22T06:17:53;46109.19;;;-144.44;83.43
7836;BME280;3963;42.658;23.298;2023-06-22T06:20:21;46002.44;;;-144.44;81.27
7836;BME280;3963;42.658;23.298;2023-06-22T06:22:49;46010.34;;;-144.44;80.64
7836;BME280;3963;42.658;23.298;2023-06-22T06:25:16;46002.44;;;-144.44;80.23
7836;BME280;3963;42.658;23.298;2023-06-22T06:27:45;45998.47;;;-144.44;80.24
7836;BME280;3963;42.658;23.298;2023-06-22T06:30:14;45923.38;;;-144.44;77.93
7836;BME280;3963;42.658;23.298;2023-06-22T06:32:41;45860.13;;;-144.44;74.67
7836;BME280;3963;42.658;23.298;2023-06-22T06:35:10;45798.84;;;-144.44;72.95
7836;BME280;3963;42.658;23.298;2023-06-22T06:37:37;45721.75;;;-144.44;70.46
7836;BME280;3963;42.658;23.298;2023-06-22T06:40:06;45713.84;;;-144.44;69.41
7836;BME280;3963;42.658;23.298;2023-06-22T06:42:34;45702.00;;;-144.44;68.11
7836;BME280;3963;42.658;23.298;2023-06-22T06:45:01;45656.53;;;-144.44;65.43
7836;BME280;3963;42.658;23.298;2023-06-22T06:47:27;45676.28;;;-144.44;64.92
7836;BME280;3963;42.658;23.298;2023-06-22T06:49:54;45672.34;;;-144.44;64.27
7836;BME280;3963;42.658;23.298;2023-06-22T06:52:22;45658.50;;;-144.44;62.93
7836;BME280;3963;42.658;23.298;2023-06-22T06:54:49;45672.34;;;-144.44;62.59
7836;BME280;3963;42.658;23.298;2023-06-22T06:57:17;45670.38;;;-144.44;61.97
7836;BME280;3963;42.658;23.298;2023-06-22T06:59:44;45672.34;;;-144.44;60.64
7836;BME280;3963;42.658;23.298;2023-06-22T07:02:10;45686.19;;;-144.44;57.70
7836;BME280;3963;42.658;23.298;2023-06-22T07:04:37;45749.44;;;-144.44;55.23
7836;BME280;3963;42.658;23.298;2023-06-22T07:07:04;45729.66;;;-144.44;53.29
7836;BME280;3963;42.658;23.298;2023-06-22T07:09:32;45792.91;;;-144.44;52.10
7836;BME280;3963;42.658;23.298;2023-06-22T07:11:59;45786.97;;;-144.44;50.77
7836;BME280;3963;42.658;23.298;2023-06-22T07:14:26;45790.94;;;-144.44;49.68
7836;BME280;3963;42.658;23.298;2023-06-22T07:16:53;45816.63;;;-144.44;49.91
7836;BME280;3963;42.658;23.298;2023-06-22T07:19:24;45879.88;;;-144.44;47.97
7836;BME280;3963;42.658;23.298;2023-06-22T07:21:51;45927.31;;;-144.44;46.92
7836;BME280;3963;42.658;23.298;2023-06-22T07:24:19;45933.25;;;-144.44;45.83
7836;BME280;3963;42.658;23.298;2023-06-22T07:26:48;45927.31;;;-144.44;45.59
7836;BME280;3963;42.658;23.298;2023-06-22T07:29:15;46004.41;;;-144.44;44.05
7836;BME280;3963;42.658;23.298;2023-06-22T07:31:42;46041.97;;;-144.44;43.69
7836;BME280;3963;42.658;23.298;2023-06-22T07:34:09;46026.16;;;-144.44;42.78
7836;BME280;3963;42.658;23.298;2023-06-22T07:36:36;45966.84;;;-144.44;43.32
7836;BME280;3963;42.658;23.298;2023-06-22T07:39:03;45998.47;;;-144.44;42.54
7836;BME280;3963;42.658;23.298;2023-06-22T07:41:30;46014.28;;;-144.44;41.43
7836;BME280;3963;42.658;23.298;2023-06-22T07:43:59;46000.47;;;-144.44;41.69
7836;BME280;3963;42.658;23.298;2023-06-22T07:46:25;46047.91;;;-144.44;40.47
7836;BME280;3963;42.658;23.298;2023-06-22T07:48:52;46142.78;;;-144.44;39.91
7836;BME280;3963;42.658;23.298;2023-06-22T07:51:19;46138.84;;;-144.44;39.61
7836;BME280;3963;42.658;23.298;2023-06-22T07:53:46;46136.84;;;-144.44;39.73
7836;BME280;3963;42.658;23.298;2023-06-22T07:56:13;46095.34;;;-144.44;40.71
7836;BME280;3963;42.658;23.298;2023-06-22T07:58:44;46032.09;;;-144.44;42.55
7836;BME280;3963;42.658;23.298;2023-06-22T08:01:12;45903.59;;;-144.44;44.87
7836;BME280;3963;42.658;23.298;2023-06-22T08:03:39;45915.47;;;-144.44;44.82
7836;BME280;3963;42.658;23.298;2023-06-22T08:06:06;45885.81;;;-144.44;45.05
7836;BME280;3963;42.658;23.298;2023-06-22T08:08:34;45895.69;;;-144.44;45.84
7836;BME280;3963;42.658;23.298;2023-06-22T08:11:01;45962.91;;;-144.44;43.45
7836;BME280;3963;42.658;23.298;2023-06-22T08:13:28;46028.13;;;-144.44;42.12
7836;BME280;3963;42.658;23.298;2023-06-22T08:15:55;46178.38;;;-144.44;39.87
7836;BME280;3963;42.658;23.298;2023-06-22T08:18:23;46113.13;;;-144.44;39.99
7836;BME280;3963;42.658;23.298;2023-06-22T08:20:50;45992.56;;;-144.44;41.46
7836;BME280;3963;42.658;23.298;2023-06-22T08:23:17;46061.75;;;-144.44;40.48
7836;BME280;3963;42.658;23.298;2023-06-22T08:25:43;46081.50;;;-144.44;40.76
7836;BME280;3963;42.658;23.298;2023-06-22T08:28:10;46115.09;;;-144.44;40.17
7836;BME280;3963;42.658;23.298;2023-06-22T08:30:38;46182.31;;;-144.44;38.77
7836;BME280;3963;42.658;23.298;2023-06-22T08:33:05;46059.75;;;-144.44;40.68
7836;BME280;3963;42.658;23.298;2023-06-22T08:35:33;46047.91;;;-144.44;41.32
7836;BME280;3963;42.658;23.298;2023-06-22T08:38:00;46061.75;;;-144.44;40.80
7836;BME280;3963;42.658;23.298;2023-06-22T08:40:27;46200.13;;;-144.44;40.01
7836;BME280;3963;42.658;23.298;2023-06-22T08:42:54;46142.78;;;-144.44;38.57
7836;BME280;3963;42.658;23.298;2023-06-22T08:45:21;46130.94;;;-144.44;39.03
7836;BME280;3963;42.658;23.298;2023-06-22T08:47:47;46275.22;;;-144.44;37.76
7836;BME280;3963;42.658;23.298;2023-06-22T08:50:14;46350.34;;;-144.44;36.41
7836;BME280;3963;42.658;23.298;2023-06-22T08:52:43;46314.78;;;-144.44;37.44
7836;BME280;3963;42.658;23.298;2023-06-22T08:55:11;46393.84;;;-144.44;36.03
7836;BME280;3963;42.658;23.298;2023-06-22T08:57:38;46447.22;;;-144.44;34.99
7836;BME280;3963;42.658;23.298;2023-06-22T09:00:06;46397.81;;;-144.44;35.20
7836;BME280;3963;42.658;23.298;2023-06-22T09:02:40;46470.94;;;-144.44;35.00
7836;BME280;3963;42.658;23.298;2023-06-22T09:05:07;46496.66;;;-144.44;33.39
7836;BME280;3963;42.658;23.298;2023-06-22T09:07:34;46488.75;;;-144.44;33.51
7836;BME280;3963;42.658;23.298;2023-06-22T09:10:02;46427.47;;;-144.44;33.34
7836;BME280;3963;42.658;23.298;2023-06-22T09:12:31;46413.63;;;-144.44;31.93
7836;BME280;3963;42.658;23.298;2023-06-22T09:14:58;46387.91;;;-144.44;33.15
7836;BME280;3963;42.658;23.298;2023-06-22T09:17:26;46447.22;;;-144.44;33.29
7836;BME280;3963;42.658;23.298;2023-06-22T09:19:53;46512.47;;;-144.44;32.85
7836;BME280;3963;42.658;23.298;2023-06-22T09:22:19;46571.78;;;-144.44;32.20
7836;BME280;3963;42.658;23.298;2023-06-22T09:24:46;46666.69;;;-144.44;32.12
7836;BME280;3963;42.658;23.298;2023-06-22T09:27:15;46686.44;;;-144.44;31.04
7836;BME280;3963;42.658;23.298;2023-06-22T09:29:42;46670.63;;;-144.44;31.45
7836;BME280;3963;42.658;23.298;2023-06-22T09:32:08;46690.41;;;-144.44;30.73
7836;BME280;3963;42.658;23.298;2023-06-22T09:34:35;46745.75;;;-144.44;30.92
7836;BME280;3963;42.658;23.298;2023-06-22T09:37:02;46737.84;;;-144.44;30.61
7836;BME280;3963;42.658;23.298;2023-06-22T09:39:29;46892.06;;;-144.44;29.52
7836;BME280;3963;42.658;23.298;2023-06-22T09:41:57;46846.59;;;-144.44;29.64
7836;BME280;3963;42.658;23.298;2023-06-22T09:44:26;46820.91;;;-144.44;29.33
7836;BME280;3963;42.658;23.298;2023-06-22T09:46:53;46666.69;;;-144.44;30.01
7836;BME280;3963;42.658;23.298;2023-06-22T09:49:20;46801.13;;;-144.44;30.25
7836;BME280;3963;42.658;23.298;2023-06-22T09:51:47;46888.13;;;-144.44;29.29
7836;BME280;3963;42.658;23.298;2023-06-22T09:54:16;46824.84;;;-144.44;29.93
7836;BME280;3963;42.658;23.298;2023-06-22T09:56:43;46846.59;;;-144.44;29.70
7836;BME280;3963;42.658;23.298;2023-06-22T09:59:09;46822.88;;;-144.44;30.09
7836;BME280;3963;42.658;23.298;2023-06-22T10:01:38;46862.41;;;-144.44;29.03
7836;BME280;3963;42.658;23.298;2023-06-22T10:04:04;46803.09;;;-144.44;29.00
7836;BME280;3963;42.658;23.298;2023-06-22T10:06:31;46763.56;;;-144.44;28.89
7836;BME280;3963;42.658;23.298;2023-06-22T10:08:58;46664.69;;;-144.44;29.05
7836;BME280;3963;42.658;23.298;2023-06-22T10:11:25;46670.63;;;-144.44;29.17
7836;BME280;3963;42.658;23.298;2023-06-22T10:13:55;46532.22;;;-144.44;29.55
7836;BME280;3963;42.658;23.298;2023-06-22T10:16:24;46520.38;;;-144.44;29.21
7836;BME280;3963;42.658;23.298;2023-06-22T10:18:53;46585.63;;;-144.44;29.39
7836;BME280;3963;42.658;23.298;2023-06-22T10:21:20;46635.03;;;-144.44;28.82
7836;BME280;3963;42.658;23.298;2023-06-22T10:23:46;46708.19;;;-144.44;28.72
7836;BME280;3963;42.658;23.298;2023-06-22T10:26:13;46737.84;;;-144.44;29.67
7836;BME280;3963;42.658;23.298;2023-06-22T10:28:40;46735.88;;;-144.44;28.41
7836;BME280;3963;42.658;23.298;2023-06-22T10:31:07;46688.41;;;-144.44;28.56
7836;BME280;3963;42.658;23.298;2023-06-22T10:33:34;46834.72;;;-144.44;28.41
7836;BME280;3963;42.658;23.298;2023-06-22T10:36:02;46860.44;;;-144.44;28.59
7836;BME280;3963;42.658;23.298;2023-06-22T10:38:30;46931.63;;;-144.44;28.77
7836;BME280;3963;42.658;23.298;2023-06-22T10:40:56;47042.34;;;-144.44;28.13
7836;BME280;3963;42.658;23.298;2023-06-22T10:43:23;47026.53;;;-144.44;27.74
7836;BME280;3963;42.658;23.298;2023-06-22T10:45:50;46927.66;;;-144.44;28.16
7836;BME280;3963;42.658;23.298;2023-06-22T10:48:17;46981.03;;;-144.44;28.39
7836;BME280;3963;42.658;23.298;2023-06-22T10:50:43;46882.19;;;-144.44;27.98
7836;BME280;3963;42.658;23.298;2023-06-22T10:53:12;46892.06;;;-144.44;28.30
7836;BME280;3963;42.658;23.298;2023-06-22T10:55:39;46805.06;;;-144.44;28.33
7836;BME280;3963;42.658;23.298;2023-06-22T10:58:05;46793.22;;;-144.44;28.25
7836;BME280;3963;42.658;23.298;2023-06-22T11:00:32;46769.50;;;-144.44;28.57
7836;BME280;3963;42.658;23.298;2023-06-22T11:02:59;46820.91;;;-144.44;28.45
7836;BME280;3963;42.658;23.298;2023-06-22T11:05:26;46898.00;;;-144.44;28.43
7836;BME280;3963;42.658;23.298;2023-06-22T11:07:52;46799.16;;;-144.44;28.44
7836;BME280;3963;42.658;23.298;2023-06-22T11:10:21;46597.47;;;-144.44;29.31
7836;BME280;3963;42.658;23.298;2023-06-22T11:12:48;46591.53;;;-144.44;29.36
7836;BME280;3963;42.658;23.298;2023-06-22T11:15:15;46591.53;;;-144.44;29.80
7836;BME280;3963;42.658;23.298;2023-06-22T11:17:42;46577.72;;;-144.44;29.51
7836;BME280;3963;42.658;23.298;2023-06-22T11:20:09;46587.59;;;-144.44;30.87
7836;BME280;3963;42.658;23.298;2023-06-22T11:22:36;46563.88;;;-144.44;29.83
7836;BME280;3963;42.658;23.298;2023-06-22T11:25:05;46658.75;;;-144.44;30.14
7836;BME280;3963;42.658;23.298;2023-06-22T11:27:34;46656.78;;;-144.44;29.51
7836;BME280;3963;42.658;23.298;2023-06-22T11:30:01;46567.81;;;-144.44;29.44
7836;BME280;3963;42.658;23.298;2023-06-22T11:32:28;46528.28;;;-144.44;30.20
7836;BME280;3963;42.658;23.298;2023-06-22T11:34:55;46423.50;;;-144.44;30.97
7836;BME280;3963;42.658;23.298;2023-06-22T11:37:22;46435.38;;;-144.44;30.44
7836;BME280;3963;42.658;23.298;2023-06-22T11:39:49;46403.72;;;-144.44;30.37
7836;BME280;3963;42.658;23.298;2023-06-22T11:42:16;46310.81;;;-144.44;30.89
7836;BME280;3963;42.658;23.298;2023-06-22T11:44:44;46328.59;;;-144.44;31.74
7836;BME280;3963;42.658;23.298;2023-06-22T11:47:11;46192.22;;;-144.44;32.53
7836;BME280;3963;42.658;23.298;2023-06-22T11:49:37;46101.28;;;-144.44;33.56
7836;BME280;3963;42.658;23.298;2023-06-22T11:52:05;46077.56;;;-144.44;33.96
7836;BME280;3963;42.658;23.298;2023-06-22T11:54:32;46121.03;;;-144.44;36.19
7836;BME280;3963;42.658;23.298;2023-06-22T11:56:59;45956.97;;;-144.44;35.48
7836;BME280;3963;42.658;23.298;2023-06-22T11:59:26;45933.25;;;-144.44;35.55
7836;BME280;3963;42.658;23.298;2023-06-22T12:01:54;45980.69;;;-144.44;37.19
7836;BME280;3963;42.658;23.298;2023-06-22T12:04:21;45982.66;;;-144.44;37.09
7836;BME280;3963;42.658;23.298;2023-06-22T12:06:47;45986.63;;;-144.44;37.69
7836;BME280;3963;42.658;23.298;2023-06-22T12:09:14;45962.91;;;-144.44;38.45
7836;BME280;3963;42.658;23.298;2023-06-22T12:11:41;45911.50;;;-144.44;39.07
7836;BME280;3963;42.658;23.298;2023-06-22T12:14:07;45931.28;;;-144.44;38.78
7836;BME280;3963;42.658;23.298;2023-06-22T12:16:34;45986.63;;;-144.44;39.45
7836;BME280;3963;42.658;23.298;2023-06-22T12:19:02;45956.97;;;-144.44;38.85
7836;BME280;3963;42.658;23.298;2023-06-22T12:21:29;45935.22;;;-144.44;40.05
7836;BME280;3963;42.658;23.298;2023-06-22T12:23:56;45862.09;;;-144.44;47.40
7836;BME280;3963;42.658;23.298;2023-06-22T12:26:23;45765.25;;;-144.44;53.01
7836;BME280;3963;42.658;23.298;2023-06-22T12:28:50;45790.94;;;-144.44;61.33
7836;BME280;3963;42.658;23.298;2023-06-22T12:31:17;45927.31;;;-144.44;65.98
7836;BME280;3963;42.658;23.298;2023-06-22T12:33:44;45856.16;;;-144.44;60.77
7836;BME280;3963;42.658;23.298;2023-06-22T12:36:12;45779.06;;;-144.44;58.02
7836;BME280;3963;42.658;23.298;2023-06-22T12:38:39;45773.16;;;-144.44;61.26
7836;BME280;3963;42.658;23.298;2023-06-22T12:41:05;45929.31;;;-144.44;68.34
7836;BME280;3963;42.658;23.298;2023-06-22T12:43:32;46036.03;;;-144.44;70.01
7836;BME280;3963;42.658;23.298;2023-06-22T12:45:59;46494.66;;;-144.44;77.56
7836;BME280;3963;42.658;23.298;2023-06-22T12:48:26;46988.97;;;-144.44;82.94
7836;BME280;3963;42.658;23.298;2023-06-22T12:50:53;47020.59;;;-144.44;83.93